sensor_id;sensor_type;location;lat;lon;timestamp;pressure;altitude;pressure_sealevel;temperature;humidity
57250;BME280;43102;52.014;-0.680;2023-06-22T00:00:00;100964;;;21.65;56.57
57250;BME280;43102;52.014;-0.680;2023-06-22T00:01:00;100966;;;21.62;56.55
57250;BME280;43102;52.014;-0.680;2023-06-22T00:02:00;100966;;;21.62;56.55
57250;BME280;43102;52.014;-0.680;2023-06-22T00:03:00;100966;;;21.62;56.55
57250;BME280;43102;52.014;-0.680;2023-06-22T00:04:00;100966;;;21.62;56.55
57250;BME280;43102;52.014;-0.680;2023-06-22T00:05:00;100966;;;21.62;56.55
57250;BME280;43102;52.014;-0.680;2023-06-22T00:06:00;100962;;;21.55;56.79
57250;BME280;43102;52.014;-0.680;2023-06-22T00:07:00;100962;;;21.55;56.79
57250;BME280;43102;52.014;-0.680;2023-06-22T00:08:03;100962;;;21.55;56.79
57250;BME280;43102;52.014;-0.680;2023-06-22T00:09:00;100962;;;21.55;56.79
57250;BME280;43102;52.014;-0.680;2023-06-22T00:10:00;100962;;;21.55;56.79
57250;BME280;43102;52.014;-0.680;2023-06-22T00:11:00;100968;;;21.47;56.90
57250;BME280;43102;52.014;-0.680;2023-06-22T00:12:00;100968;;;21.47;56.90
57250;BME280;43102;52.014;-0.680;2023-06-22T00:13:00;100968;;;21.47;56.90
57250;BME280;43102;52.014;-0.680;2023-06-22T00:14:00;100968;;;21.47;56.90
57250;BME280;43102;52.014;-0.680;2023-06-22T00:15:00;100968;;;21.47;56.90
57250;BME280;43102;52.014;-0.680;2023-06-22T00:16:00;100975;;;21.44;56.98
57250;BME280;43102;52.014;-0.680;2023-06-22T00:17:00;100975;;;21.44;56.98
57250;BME280;43102;52.014;-0.680;2023-06-22T00:18:00;100975;;;21.44;56.98
57250;BME280;43102;52.014;-0.680;2023-06-22T00:19:00;100975;;;21.44;56.98
57250;BME280;43102;52.014;-0.680;2023-06-22T00:20:00;100975;;;21.44;56.98
57250;BME280;43102;52.014;-0.680;2023-06-22T00:21:00;100977;;;21.36;57.55
57250;BME280;43102;52.014;-0.680;2023-06-22T00:22:00;100977;;;21.36;57.55
57250;BME280;43102;52.014;-0.680;2023-06-22T00:23:00;100977;;;21.36;57.55
57250;BME280;43102;52.014;-0.680;2023-06-22T00:24:00;100977;;;21.36;57.55
57250;BME280;43102;52.014;-0.680;2023-06-22T00:25:00;100977;;;21.36;57.55
57250;BME280;43102;52.014;-0.680;2023-06-22T00:26:00;100975;;;21.34;57.55
57250;BME280;43102;52.014;-0.680;2023-06-22T00:27:00;100975;;;21.34;57.55
57250;BME280;43102;52.014;-0.680;2023-06-22T00:28:00;100975;;;21.34;57.55
57250;BME280;43102;52.014;-0.680;2023-06-22T00:29:00;100975;;;21.34;57.55
57250;BME280;43102;52.014;-0.680;2023-06-22T00:30:00;100975;;;21.34;57.55
57250;BME280;43102;52.014;-0.680;2023-06-22T00:31:00;100978;;;21.33;57.63
57250;BME280;43102;52.014;-0.680;2023-06-22T00:32:00;100978;;;21.33;57.63
57250;BME280;43102;52.014;-0.680;2023-06-22T00:33:00;100978;;;21.33;57.63
57250;BME280;43102;52.014;-0.680;2023-06-22T00:34:00;100978;;;21.33;57.63
57250;BME280;43102;52.014;-0.680;2023-06-22T00:35:00;100978;;;21.33;57.63
57250;BME280;43102;52.014;-0.680;2023-06-22T00:36:00;100982;;;21.29;57.79
57250;BME280;43102;52.014;-0.680;2023-06-22T00:37:00;100982;;;21.29;57.79
57250;BME280;43102;52.014;-0.680;2023-06-22T00:38:00;100982;;;21.29;57.79
57250;BME280;43102;52.014;-0.680;2023-06-22T00:39:00;100982;;;21.29;57.79
57250;BME280;43102;52.014;-0.680;2023-06-22T00:40:00;100982;;;21.29;57.79
57250;BME280;43102;52.014;-0.680;2023-06-22T00:41:00;100983;;;21.22;57.82
57250;BME280;43102;52.014;-0.680;2023-06-22T00:42:00;100983;;;21.22;57.82
57250;BME280;43102;52.014;-0.680;2023-06-22T00:43:00;100983;;;21.22;57.82
57250;BME280;43102;52.014;-0.680;2023-06-22T00:44:00;100983;;;21.22;57.82
57250;BME280;43102;52.014;-0.680;2023-06-22T00:45:00;100983;;;21.22;57.82
57250;BME280;43102;52.014;-0.680;2023-06-22T00:46:00;100998;;;21.14;58.04
57250;BME280;43102;52.014;-0.680;2023-06-22T00:47:00;100998;;;21.14;58.04
57250;BME280;43102;52.014;-0.680;2023-06-22T00:48:00;100998;;;21.14;58.04
57250;BME280;43102;52.014;-0.680;2023-06-22T00:49:00;100998;;;21.14;58.04
57250;BME280;43102;52.014;-0.680;2023-06-22T00:50:00;100998;;;21.14;58.04
57250;BME280;43102;52.014;-0.680;2023-06-22T00:51:00;100992;;;21.04;58.62
57250;BME280;43102;52.014;-0.680;2023-06-22T00:52:00;100992;;;21.04;58.62
57250;BME280;43102;52.014;-0.680;2023-06-22T00:53:01;100992;;;21.04;58.62
57250;BME280;43102;52.014;-0.680;2023-06-22T00:54:00;100992;;;21.04;58.62
57250;BME280;43102;52.014;-0.680;2023-06-22T00:55:00;100992;;;21.04;58.62
57250;BME280;43102;52.014;-0.680;2023-06-22T00:56:00;100991;;;21.00;58.44
57250;BME280;43102;52.014;-0.680;2023-06-22T00:57:00;100991;;;21.00;58.44
57250;BME280;43102;52.014;-0.680;2023-06-22T00:58:00;100991;;;21.00;58.44
57250;BME280;43102;52.014;-0.680;2023-06-22T00:59:00;100991;;;21.00;58.44
57250;BME280;43102;52.014;-0.680;2023-06-22T01:00:00;100991;;;21.00;58.44
57250;BME280;43102;52.014;-0.680;2023-06-22T01:01:00;100990;;;20.96;58.55
57250;BME280;43102;52.014;-0.680;2023-06-22T01:02:00;100990;;;20.96;58.55
57250;BME280;43102;52.014;-0.680;2023-06-22T01:03:01;100990;;;20.96;58.55
57250;BME280;43102;52.014;-0.680;2023-06-22T01:04:00;100990;;;20.96;58.55
57250;BME280;43102;52.014;-0.680;2023-06-22T01:05:00;100990;;;20.96;58.55
57250;BME280;43102;52.014;-0.680;2023-06-22T01:06:03;100994;;;20.90;58.72
57250;BME280;43102;52.014;-0.680;2023-06-22T01:07:03;100994;;;20.90;58.72
57250;BME280;43102;52.014;-0.680;2023-06-22T01:08:19;100994;;;20.90;58.72
57250;BME280;43102;52.014;-0.680;2023-06-22T01:09:02;100994;;;20.90;58.72
57250;BME280;43102;52.014;-0.680;2023-06-22T01:10:08;100994;;;20.90;58.72
57250;BME280;43102;52.014;-0.680;2023-06-22T01:12:01;100997;;;20.83;58.85
57250;BME280;43102;52.014;-0.680;2023-06-22T01:13:02;100997;;;20.83;58.85
57250;BME280;43102;52.014;-0.680;2023-06-22T01:14:03;100997;;;20.83;58.85
57250;BME280;43102;52.014;-0.680;2023-06-22T01:15:02;100997;;;20.83;58.85
57250;BME280;43102;52.014;-0.680;2023-06-22T01:16:02;100997;;;20.81;58.89
57250;BME280;43102;52.014;-0.680;2023-06-22T01:17:00;100997;;;20.81;58.89
57250;BME280;43102;52.014;-0.680;2023-06-22T01:18:00;100997;;;20.81;58.89
57250;BME280;43102;52.014;-0.680;2023-06-22T01:19:01;100997;;;20.81;58.89
57250;BME280;43102;52.014;-0.680;2023-06-22T01:20:00;100997;;;20.81;58.89
57250;BME280;43102;52.014;-0.680;2023-06-22T01:21:00;100996;;;20.70;59.37
57250;BME280;43102;52.014;-0.680;2023-06-22T01:22:00;100996;;;20.70;59.37
57250;BME280;43102;52.014;-0.680;2023-06-22T01:27:04;100992;;;20.64;59.35
57250;BME280;43102;52.014;-0.680;2023-06-22T01:29:00;100992;;;20.64;59.35
57250;BME280;43102;52.014;-0.680;2023-06-22T01:30:00;100992;;;20.64;59.35
57250;BME280;43102;52.014;-0.680;2023-06-22T01:31:00;100991;;;20.63;59.42
57250;BME280;43102;52.014;-0.680;2023-06-22T01:32:00;100991;;;20.63;59.42
57250;BME280;43102;52.014;-0.680;2023-06-22T01:33:00;100991;;;20.63;59.42
57250;BME280;43102;52.014;-0.680;2023-06-22T01:34:00;100991;;;20.63;59.42
57250;BME280;43102;52.014;-0.680;2023-06-22T01:35:00;100991;;;20.63;59.42
57250;BME280;43102;52.014;-0.680;2023-06-22T01:36:00;100994;;;20.63;59.45
57250;BME280;43102;52.014;-0.680;2023-06-22T01:37:00;100994;;;20.63;59.45
57250;BME280;43102;52.014;-0.680;2023-06-22T01:38:00;100994;;;20.63;59.45
57250;BME280;43102;52.014;-0.680;2023-06-22T01:39:00;100994;;;20.63;59.45
57250;BME280;43102;52.014;-0.680;2023-06-22T01:40:00;100994;;;20.63;59.45
57250;BME280;43102;52.014;-0.680;2023-06-22T01:41:00;100982;;;20.62;59.60
57250;BME280;43102;52.014;-0.680;2023-06-22T01:42:00;100982;;;20.62;59.60
57250;BME280;43102;52.014;-0.680;2023-06-22T01:43:00;100982;;;20.62;59.60
57250;BME280;43102;52.014;-0.680;2023-06-22T01:44:00;100982;;;20.62;59.60
57250;BME280;43102;52.014;-0.680;2023-06-22T01:45:00;100982;;;20.62;59.60
57250;BME280;43102;52.014;-0.680;2023-06-22T01:46:00;100989;;;20.59;59.67
57250;BME280;43102;52.014;-0.680;2023-06-22T01:47:00;100989;;;20.59;59.67
57250;BME280;43102;52.014;-0.680;2023-06-22T01:48:00;100989;;;20.59;59.67
57250;BME280;43102;52.014;-0.680;2023-06-22T01:49:00;100989;;;20.59;59.67
57250;BME280;43102;52.014;-0.680;2023-06-22T01:50:00;100989;;;20.59;59.67
57250;BME280;43102;52.014;-0.680;2023-06-22T01:51:00;100988;;;20.56;60.08
57250;BME280;43102;52.014;-0.680;2023-06-22T01:52:00;100988;;;20.56;60.08
57250;BME280;43102;52.014;-0.680;2023-06-22T01:53:00;100988;;;20.56;60.08
57250;BME280;43102;52.014;-0.680;2023-06-22T01:54:01;100988;;;20.56;60.08
57250;BME280;43102;52.014;-0.680;2023-06-22T01:55:00;100988;;;20.56;60.08
57250;BME280;43102;52.014;-0.680;2023-06-22T01:56:00;100993;;;20.60;60.06
57250;BME280;43102;52.014;-0.680;2023-06-22T01:57:00;100993;;;20.60;60.06
57250;BME280;43102;52.014;-0.680;2023-06-22T01:58:00;100993;;;20.60;60.06
57250;BME280;43102;52.014;-0.680;2023-06-22T02:00:01;100993;;;20.60;60.06
57250;BME280;43102;52.014;-0.680;2023-06-22T02:01:02;100996;;;20.59;60.00
57250;BME280;43102;52.014;-0.680;2023-06-22T02:02:02;100996;;;20.59;60.00
57250;BME280;43102;52.014;-0.680;2023-06-22T02:03:01;100996;;;20.59;60.00
57250;BME280;43102;52.014;-0.680;2023-06-22T02:04:09;100996;;;20.59;60.00
57250;BME280;43102;52.014;-0.680;2023-06-22T02:05:05;100996;;;20.59;60.00
57250;BME280;43102;52.014;-0.680;2023-06-22T02:06:03;100990;;;20.59;59.88
57250;BME280;43102;52.014;-0.680;2023-06-22T02:07:00;100990;;;20.59;59.88
57250;BME280;43102;52.014;-0.680;2023-06-22T02:08:02;100990;;;20.59;59.88
57250;BME280;43102;52.014;-0.680;2023-06-22T02:09:01;100990;;;20.59;59.88
57250;BME280;43102;52.014;-0.680;2023-06-22T02:10:00;100990;;;20.59;59.88
57250;BME280;43102;52.014;-0.680;2023-06-22T02:11:00;100986;;;20.62;59.91
57250;BME280;43102;52.014;-0.680;2023-06-22T02:12:00;100986;;;20.62;59.91
57250;BME280;43102;52.014;-0.680;2023-06-22T02:13:01;100986;;;20.62;59.91
57250;BME280;43102;52.014;-0.680;2023-06-22T02:14:00;100986;;;20.62;59.91
57250;BME280;43102;52.014;-0.680;2023-06-22T02:15:00;100986;;;20.62;59.91
57250;BME280;43102;52.014;-0.680;2023-06-22T02:16:00;100984;;;20.63;59.93
57250;BME280;43102;52.014;-0.680;2023-06-22T02:17:00;100984;;;20.63;59.93
57250;BME280;43102;52.014;-0.680;2023-06-22T02:18:00;100984;;;20.63;59.93
57250;BME280;43102;52.014;-0.680;2023-06-22T02:19:00;100984;;;20.63;59.93
57250;BME280;43102;52.014;-0.680;2023-06-22T02:20:01;100984;;;20.63;59.93
57250;BME280;43102;52.014;-0.680;2023-06-22T02:21:00;100984;;;20.55;60.20
57250;BME280;43102;52.014;-0.680;2023-06-22T02:22:00;100984;;;20.55;60.20
57250;BME280;43102;52.014;-0.680;2023-06-22T02:23:00;100984;;;20.55;60.20
57250;BME280;43102;52.014;-0.680;2023-06-22T02:24:00;100984;;;20.55;60.20
57250;BME280;43102;52.014;-0.680;2023-06-22T02:25:00;100984;;;20.55;60.20
57250;BME280;43102;52.014;-0.680;2023-06-22T02:26:00;100986;;;20.55;60.26
57250;BME280;43102;52.014;-0.680;2023-06-22T02:27:00;100986;;;20.55;60.26
57250;BME280;43102;52.014;-0.680;2023-06-22T02:28:00;100986;;;20.55;60.26
57250;BME280;43102;52.014;-0.680;2023-06-22T02:29:00;100986;;;20.55;60.26
57250;BME280;43102;52.014;-0.680;2023-06-22T02:30:00;100986;;;20.55;60.26
57250;BME280;43102;52.014;-0.680;2023-06-22T02:31:00;100987;;;20.50;60.26
57250;BME280;43102;52.014;-0.680;2023-06-22T02:32:00;100987;;;20.50;60.26
57250;BME280;43102;52.014;-0.680;2023-06-22T02:33:00;100987;;;20.50;60.26
57250;BME280;43102;52.014;-0.680;2023-06-22T02:34:00;100987;;;20.50;60.26
57250;BME280;43102;52.014;-0.680;2023-06-22T02:35:00;100987;;;20.50;60.26
57250;BME280;43102;52.014;-0.680;2023-06-22T02:36:00;100996;;;20.46;60.12
57250;BME280;43102;52.014;-0.680;2023-06-22T02:37:00;100996;;;20.46;60.12
57250;BME280;43102;52.014;-0.680;2023-06-22T02:38:00;100996;;;20.46;60.12
57250;BME280;43102;52.014;-0.680;2023-06-22T02:39:00;100996;;;20.46;60.12
57250;BME280;43102;52.014;-0.680;2023-06-22T02:40:00;100996;;;20.46;60.12
57250;BME280;43102;52.014;-0.680;2023-06-22T02:41:00;101001;;;20.42;60.15
57250;BME280;43102;52.014;-0.680;2023-06-22T02:42:00;101001;;;20.42;60.15
57250;BME280;43102;52.014;-0.680;2023-06-22T02:43:00;101001;;;20.42;60.15
57250;BME280;43102;52.014;-0.680;2023-06-22T02:44:00;101001;;;20.42;60.15
57250;BME280;43102;52.014;-0.680;2023-06-22T02:45:00;101001;;;20.42;60.15
57250;BME280;43102;52.014;-0.680;2023-06-22T02:46:00;101003;;;20.36;60.22
57250;BME280;43102;52.014;-0.680;2023-06-22T02:47:00;101003;;;20.36;60.22
57250;BME280;43102;52.014;-0.680;2023-06-22T02:48:00;101003;;;20.36;60.22
57250;BME280;43102;52.014;-0.680;2023-06-22T02:49:00;101003;;;20.36;60.22
57250;BME280;43102;52.014;-0.680;2023-06-22T02:50:00;101003;;;20.36;60.22
57250;BME280;43102;52.014;-0.680;2023-06-22T02:51:00;101004;;;20.27;60.67
57250;BME280;43102;52.014;-0.680;2023-06-22T02:52:00;101004;;;20.27;60.67
57250;BME280;43102;52.014;-0.680;2023-06-22T02:53:00;101004;;;20.27;60.67
57250;BME280;43102;52.014;-0.680;2023-06-22T02:54:00;101004;;;20.27;60.67
57250;BME280;43102;52.014;-0.680;2023-06-22T02:55:00;101004;;;20.27;60.67
57250;BME280;43102;52.014;-0.680;2023-06-22T02:56:03;100995;;;20.22;60.53
57250;BME280;43102;52.014;-0.680;2023-06-22T02:57:00;100995;;;20.22;60.53
57250;BME280;43102;52.014;-0.680;2023-06-22T02:58:00;100995;;;20.22;60.53
57250;BME280;43102;52.014;-0.680;2023-06-22T02:59:00;100995;;;20.22;60.53
57250;BME280;43102;52.014;-0.680;2023-06-22T03:00:01;100995;;;20.22;60.53
57250;BME280;43102;52.014;-0.680;2023-06-22T03:01:00;100989;;;20.20;60.64
57250;BME280;43102;52.014;-0.680;2023-06-22T03:02:00;100989;;;20.20;60.64
57250;BME280;43102;52.014;-0.680;2023-06-22T03:03:00;100989;;;20.20;60.64
57250;BME280;43102;52.014;-0.680;2023-06-22T03:04:00;100989;;;20.20;60.64
57250;BME280;43102;52.014;-0.680;2023-06-22T03:05:00;100989;;;20.20;60.64
57250;BME280;43102;52.014;-0.680;2023-06-22T03:06:00;100993;;;20.14;60.80
57250;BME280;43102;52.014;-0.680;2023-06-22T03:07:00;100993;;;20.14;60.80
57250;BME280;43102;52.014;-0.680;2023-06-22T03:08:00;100993;;;20.14;60.80
57250;BME280;43102;52.014;-0.680;2023-06-22T03:09:01;100993;;;20.14;60.80
57250;BME280;43102;52.014;-0.680;2023-06-22T03:10:00;100993;;;20.14;60.80
57250;BME280;43102;52.014;-0.680;2023-06-22T03:11:00;100984;;;20.09;60.79
57250;BME280;43102;52.014;-0.680;2023-06-22T03:12:00;100984;;;20.09;60.79
57250;BME280;43102;52.014;-0.680;2023-06-22T03:13:00;100984;;;20.09;60.79
57250;BME280;43102;52.014;-0.680;2023-06-22T03:14:00;100984;;;20.09;60.79
57250;BME280;43102;52.014;-0.680;2023-06-22T03:15:00;100984;;;20.09;60.79
57250;BME280;43102;52.014;-0.680;2023-06-22T03:16:00;100988;;;20.05;60.98
57250;BME280;43102;52.014;-0.680;2023-06-22T03:17:00;100988;;;20.05;60.98
57250;BME280;43102;52.014;-0.680;2023-06-22T03:18:00;100988;;;20.05;60.98
57250;BME280;43102;52.014;-0.680;2023-06-22T03:19:00;100988;;;20.05;60.98
57250;BME280;43102;52.014;-0.680;2023-06-22T03:20:00;100988;;;20.05;60.98
57250;BME280;43102;52.014;-0.680;2023-06-22T03:21:00;100991;;;19.99;61.36
57250;BME280;43102;52.014;-0.680;2023-06-22T03:22:00;100991;;;19.99;61.36
57250;BME280;43102;52.014;-0.680;2023-06-22T03:23:00;100991;;;19.99;61.36
57250;BME280;43102;52.014;-0.680;2023-06-22T03:24:00;100991;;;19.99;61.36
57250;BME280;43102;52.014;-0.680;2023-06-22T03:25:00;100991;;;19.99;61.36
57250;BME280;43102;52.014;-0.680;2023-06-22T03:26:01;100992;;;19.95;61.28
57250;BME280;43102;52.014;-0.680;2023-06-22T03:27:00;100992;;;19.95;61.28
57250;BME280;43102;52.014;-0.680;2023-06-22T03:28:00;100992;;;19.95;61.28
57250;BME280;43102;52.014;-0.680;2023-06-22T03:29:00;100992;;;19.95;61.28
57250;BME280;43102;52.014;-0.680;2023-06-22T03:30:00;100992;;;19.95;61.28
57250;BME280;43102;52.014;-0.680;2023-06-22T03:31:00;100990;;;19.91;61.25
57250;BME280;43102;52.014;-0.680;2023-06-22T03:32:00;100990;;;19.91;61.25
57250;BME280;43102;52.014;-0.680;2023-06-22T03:33:00;100990;;;19.91;61.25
57250;BME280;43102;52.014;-0.680;2023-06-22T03:34:00;100990;;;19.91;61.25
57250;BME280;43102;52.014;-0.680;2023-06-22T03:35:00;100990;;;19.91;61.25
57250;BME280;43102;52.014;-0.680;2023-06-22T03:36:00;100982;;;19.87;61.40
57250;BME280;43102;52.014;-0.680;2023-06-22T03:37:00;100982;;;19.87;61.40
57250;BME280;43102;52.014;-0.680;2023-06-22T03:38:00;100982;;;19.87;61.40
57250;BME280;43102;52.014;-0.680;2023-06-22T03:39:00;100982;;;19.87;61.40
57250;BME280;43102;52.014;-0.680;2023-06-22T03:40:00;100982;;;19.87;61.40
57250;BME280;43102;52.014;-0.680;2023-06-22T03:41:00;100980;;;19.83;61.43
57250;BME280;43102;52.014;-0.680;2023-06-22T03:42:00;100980;;;19.83;61.43
57250;BME280;43102;52.014;-0.680;2023-06-22T03:43:00;100980;;;19.83;61.43
57250;BME280;43102;52.014;-0.680;2023-06-22T03:44:00;100980;;;19.83;61.43
57250;BME280;43102;52.014;-0.680;2023-06-22T03:45:00;100980;;;19.83;61.43
57250;BME280;43102;52.014;-0.680;2023-06-22T03:46:00;100980;;;19.77;61.43
57250;BME280;43102;52.014;-0.680;2023-06-22T03:47:00;100980;;;19.77;61.43
57250;BME280;43102;52.014;-0.680;2023-06-22T03:48:00;100980;;;19.77;61.43
57250;BME280;43102;52.014;-0.680;2023-06-22T03:49:00;100980;;;19.77;61.43
57250;BME280;43102;52.014;-0.680;2023-06-22T03:50:00;100980;;;19.77;61.43
57250;BME280;43102;52.014;-0.680;2023-06-22T03:51:00;100980;;;19.68;61.92
57250;BME280;43102;52.014;-0.680;2023-06-22T03:52:00;100980;;;19.68;61.92
57250;BME280;43102;52.014;-0.680;2023-06-22T03:53:00;100980;;;19.68;61.92
57250;BME280;43102;52.014;-0.680;2023-06-22T03:54:00;100980;;;19.68;61.92
57250;BME280;43102;52.014;-0.680;2023-06-22T03:55:00;100980;;;19.68;61.92
57250;BME280;43102;52.014;-0.680;2023-06-22T03:56:00;100979;;;19.66;61.92
57250;BME280;43102;52.014;-0.680;2023-06-22T03:57:00;100979;;;19.66;61.92
57250;BME280;43102;52.014;-0.680;2023-06-22T03:58:00;100979;;;19.66;61.92
57250;BME280;43102;52.014;-0.680;2023-06-22T03:59:00;100979;;;19.66;61.92
57250;BME280;43102;52.014;-0.680;2023-06-22T04:00:00;100979;;;19.66;61.92
57250;BME280;43102;52.014;-0.680;2023-06-22T04:01:00;100972;;;19.62;61.91
57250;BME280;43102;52.014;-0.680;2023-06-22T04:02:00;100972;;;19.62;61.91
57250;BME280;43102;52.014;-0.680;2023-06-22T04:03:00;100972;;;19.62;61.91
57250;BME280;43102;52.014;-0.680;2023-06-22T04:04:00;100972;;;19.62;61.91
57250;BME280;43102;52.014;-0.680;2023-06-22T04:05:00;100972;;;19.62;61.91
57250;BME280;43102;52.014;-0.680;2023-06-22T04:06:00;100969;;;19.63;61.88
57250;BME280;43102;52.014;-0.680;2023-06-22T04:07:00;100969;;;19.63;61.88
57250;BME280;43102;52.014;-0.680;2023-06-22T04:08:00;100969;;;19.63;61.88
57250;BME280;43102;52.014;-0.680;2023-06-22T04:09:00;100969;;;19.63;61.88
57250;BME280;43102;52.014;-0.680;2023-06-22T04:10:00;100969;;;19.63;61.88
57250;BME280;43102;52.014;-0.680;2023-06-22T04:11:00;100961;;;19.62;61.81
57250;BME280;43102;52.014;-0.680;2023-06-22T04:12:01;100961;;;19.62;61.81
57250;BME280;43102;52.014;-0.680;2023-06-22T04:13:00;100961;;;19.62;61.81
57250;BME280;43102;52.014;-0.680;2023-06-22T04:14:00;100961;;;19.62;61.81
57250;BME280;43102;52.014;-0.680;2023-06-22T04:15:00;100961;;;19.62;61.81
57250;BME280;43102;52.014;-0.680;2023-06-22T04:16:00;100957;;;19.55;62.07
57250;BME280;43102;52.014;-0.680;2023-06-22T04:17:01;100957;;;19.55;62.07
57250;BME280;43102;52.014;-0.680;2023-06-22T04:18:00;100957;;;19.55;62.07
57250;BME280;43102;52.014;-0.680;2023-06-22T04:19:00;100957;;;19.55;62.07
57250;BME280;43102;52.014;-0.680;2023-06-22T04:20:00;100957;;;19.55;62.07
57250;BME280;43102;52.014;-0.680;2023-06-22T04:21:00;100962;;;19.50;62.56
57250;BME280;43102;52.014;-0.680;2023-06-22T04:22:00;100962;;;19.50;62.56
57250;BME280;43102;52.014;-0.680;2023-06-22T04:23:00;100962;;;19.50;62.56
57250;BME280;43102;52.014;-0.680;2023-06-22T04:24:00;100962;;;19.50;62.56
57250;BME280;43102;52.014;-0.680;2023-06-22T04:25:00;100962;;;19.50;62.56
57250;BME280;43102;52.014;-0.680;2023-06-22T04:26:00;100963;;;19.51;62.50
57250;BME280;43102;52.014;-0.680;2023-06-22T04:27:00;100963;;;19.51;62.50
57250;BME280;43102;52.014;-0.680;2023-06-22T04:28:00;100963;;;19.51;62.50
57250;BME280;43102;52.014;-0.680;2023-06-22T04:29:00;100963;;;19.51;62.50
57250;BME280;43102;52.014;-0.680;2023-06-22T04:30:00;100963;;;19.51;62.50
57250;BME280;43102;52.014;-0.680;2023-06-22T04:31:01;100966;;;19.53;62.50
57250;BME280;43102;52.014;-0.680;2023-06-22T04:32:00;100966;;;19.53;62.50
57250;BME280;43102;52.014;-0.680;2023-06-22T04:33:00;100966;;;19.53;62.50
57250;BME280;43102;52.014;-0.680;2023-06-22T04:34:00;100966;;;19.53;62.50
57250;BME280;43102;52.014;-0.680;2023-06-22T04:35:00;100966;;;19.53;62.50
57250;BME280;43102;52.014;-0.680;2023-06-22T04:36:00;100966;;;19.57;62.44
57250;BME280;43102;52.014;-0.680;2023-06-22T04:37:00;100966;;;19.57;62.44
57250;BME280;43102;52.014;-0.680;2023-06-22T04:38:00;100966;;;19.57;62.44
57250;BME280;43102;52.014;-0.680;2023-06-22T04:39:00;100966;;;19.57;62.44
57250;BME280;43102;52.014;-0.680;2023-06-22T04:40:00;100966;;;19.57;62.44
57250;BME280;43102;52.014;-0.680;2023-06-22T04:41:00;100972;;;19.59;62.42
57250;BME280;43102;52.014;-0.680;2023-06-22T04:42:00;100972;;;19.59;62.42
57250;BME280;43102;52.014;-0.680;2023-06-22T04:43:00;100972;;;19.59;62.42
57250;BME280;43102;52.014;-0.680;2023-06-22T04:44:00;100972;;;19.59;62.42
57250;BME280;43102;52.014;-0.680;2023-06-22T04:45:00;100972;;;19.59;62.42
57250;BME280;43102;52.014;-0.680;2023-06-22T04:46:00;100978;;;19.59;62.41
57250;BME280;43102;52.014;-0.680;2023-06-22T04:47:01;100978;;;19.59;62.41
57250;BME280;43102;52.014;-0.680;2023-06-22T04:48:00;100978;;;19.59;62.41
57250;BME280;43102;52.014;-0.680;2023-06-22T04:49:00;100978;;;19.59;62.41
57250;BME280;43102;52.014;-0.680;2023-06-22T04:50:00;100978;;;19.59;62.41
57250;BME280;43102;52.014;-0.680;2023-06-22T04:51:01;100982;;;19.58;62.88
57250;BME280;43102;52.014;-0.680;2023-06-22T04:52:00;100982;;;19.58;62.88
57250;BME280;43102;52.014;-0.680;2023-06-22T04:53:00;100982;;;19.58;62.88
57250;BME280;43102;52.014;-0.680;2023-06-22T04:54:00;100982;;;19.58;62.88
57250;BME280;43102;52.014;-0.680;2023-06-22T04:55:00;100982;;;19.58;62.88
57250;BME280;43102;52.014;-0.680;2023-06-22T04:56:00;100990;;;19.61;62.72
57250;BME280;43102;52.014;-0.680;2023-06-22T04:57:00;100990;;;19.61;62.72
57250;BME280;43102;52.014;-0.680;2023-06-22T04:58:00;100990;;;19.61;62.72
57250;BME280;43102;52.014;-0.680;2023-06-22T04:59:00;100990;;;19.61;62.72
57250;BME280;43102;52.014;-0.680;2023-06-22T05:00:00;100990;;;19.61;62.72
57250;BME280;43102;52.014;-0.680;2023-06-22T05:01:00;100992;;;19.67;62.66
57250;BME280;43102;52.014;-0.680;2023-06-22T05:02:00;100992;;;19.67;62.66
57250;BME280;43102;52.014;-0.680;2023-06-22T05:03:00;100992;;;19.67;62.66
57250;BME280;43102;52.014;-0.680;2023-06-22T05:04:00;100992;;;19.67;62.66
57250;BME280;43102;52.014;-0.680;2023-06-22T05:05:00;100992;;;19.67;62.66
57250;BME280;43102;52.014;-0.680;2023-06-22T05:06:00;100996;;;19.74;62.52
57250;BME280;43102;52.014;-0.680;2023-06-22T05:07:00;100996;;;19.74;62.52
57250;BME280;43102;52.014;-0.680;2023-06-22T05:08:00;100996;;;19.74;62.52
57250;BME280;43102;52.014;-0.680;2023-06-22T05:09:00;100996;;;19.74;62.52
57250;BME280;43102;52.014;-0.680;2023-06-22T05:10:00;100996;;;19.74;62.52
57250;BME280;43102;52.014;-0.680;2023-06-22T05:11:00;100990;;;19.83;62.49
57250;BME280;43102;52.014;-0.680;2023-06-22T05:12:00;100990;;;19.83;62.49
57250;BME280;43102;52.014;-0.680;2023-06-22T05:13:00;100990;;;19.83;62.49
57250;BME280;43102;52.014;-0.680;2023-06-22T05:14:00;100990;;;19.83;62.49
57250;BME280;43102;52.014;-0.680;2023-06-22T05:15:00;100990;;;19.83;62.49
57250;BME280;43102;52.014;-0.680;2023-06-22T05:16:00;100995;;;19.89;62.38
57250;BME280;43102;52.014;-0.680;2023-06-22T05:17:00;100995;;;19.89;62.38
57250;BME280;43102;52.014;-0.680;2023-06-22T05:18:00;100995;;;19.89;62.38
57250;BME280;43102;52.014;-0.680;2023-06-22T05:19:00;100995;;;19.89;62.38
57250;BME280;43102;52.014;-0.680;2023-06-22T05:20:00;100995;;;19.89;62.38
57250;BME280;43102;52.014;-0.680;2023-06-22T05:21:00;101000;;;19.89;62.54
57250;BME280;43102;52.014;-0.680;2023-06-22T05:22:00;101000;;;19.89;62.54
57250;BME280;43102;52.014;-0.680;2023-06-22T05:23:00;101000;;;19.89;62.54
57250;BME280;43102;52.014;-0.680;2023-06-22T05:24:00;101000;;;19.89;62.54
57250;BME280;43102;52.014;-0.680;2023-06-22T05:25:00;101000;;;19.89;62.54
57250;BME280;43102;52.014;-0.680;2023-06-22T05:26:00;101001;;;20.19;62.01
57250;BME280;43102;52.014;-0.680;2023-06-22T05:27:00;101001;;;20.19;62.01
57250;BME280;43102;52.014;-0.680;2023-06-22T05:28:00;101001;;;20.19;62.01